sensor_id;sensor_type;location;lat;lon;timestamp;temperature;humidity
6054;DHT22;3055;50.886;14.814;2023-06-22T00:02:08;20.70;1.00
6054;DHT22;3055;50.886;14.814;2023-06-22T00:04:35;20.70;1.00
6054;DHT22;3055;50.886;14.814;2023-06-22T00:07:02;20.70;1.00
6054;DHT22;3055;50.886;14.814;2023-06-22T00:09:31;20.70;1.00
6054;DHT22;3055;50.886;14.814;2023-06-22T00:11:58;20.70;1.00
6054;DHT22;3055;50.886;14.814;2023-06-22T00:14:26;20.80;1.00
6054;DHT22;3055;50.886;14.814;2023-06-22T00:16:53;20.70;1.00
6054;DHT22;3055;50.886;14.814;2023-06-22T00:19:21;20.70;1.00
6054;DHT22;3055;50.886;14.814;2023-06-22T00:21:48;20.70;1.00
6054;DHT22;3055;50.886;14.814;2023-06-22T00:24:19;20.60;1.00
6054;DHT22;3055;50.886;14.814;2023-06-22T00:26:48;20.60;1.00
6054;DHT22;3055;50.886;14.814;2023-06-22T00:29:15;20.50;1.00
6054;DHT22;3055;50.886;14.814;2023-06-22T00:31:42;20.50;1.00
6054;DHT22;3055;50.886;14.814;2023-06-22T00:34:09;20.40;1.00
6054;DHT22;3055;50.886;14.814;2023-06-22T00:36:36;20.30;1.00
6054;DHT22;3055;50.886;14.814;2023-06-22T00:39:06;20.30;1.00
6054;DHT22;3055;50.886;14.814;2023-06-22T00:41:34;20.20;2.20
6054;DHT22;3055;50.886;14.814;2023-06-22T00:44:02;20.00;12.80
6054;DHT22;3055;50.886;14.814;2023-06-22T00:46:29;19.90;26.50
6054;DHT22;3055;50.886;14.814;2023-06-22T00:48:57;20.00;10.10
6054;DHT22;3055;50.886;14.814;2023-06-22T00:51:25;20.00;1.50
6054;DHT22;3055;50.886;14.814;2023-06-22T00:53:52;19.90;14.60
6054;DHT22;3055;50.886;14.814;2023-06-22T00:56:20;19.80;39.20
6054;DHT22;3055;50.886;14.814;2023-06-22T00:58:51;19.80;45.60
6054;DHT22;3055;50.886;14.814;2023-06-22T01:01:21;19.80;36.80
6054;DHT22;3055;50.886;14.814;2023-06-22T01:03:49;19.80;29.10
6054;DHT22;3055;50.886;14.814;2023-06-22T01:06:21;19.80;26.10
6054;DHT22;3055;50.886;14.814;2023-06-22T01:08:57;19.70;18.50
6054;DHT22;3055;50.886;14.814;2023-06-22T01:11:32;19.60;27.50
6054;DHT22;3055;50.886;14.814;2023-06-22T01:14:06;19.50;45.40
6054;DHT22;3055;50.886;14.814;2023-06-22T01:16:41;19.50;59.10
6054;DHT22;3055;50.886;14.814;2023-06-22T01:19:20;19.40;55.10
6054;DHT22;3055;50.886;14.814;2023-06-22T01:21:53;19.30;74.20
6054;DHT22;3055;50.886;14.814;2023-06-22T01:24:23;19.30;91.80
6054;DHT22;3055;50.886;14.814;2023-06-22T01:27:00;19.20;77.00
6054;DHT22;3055;50.886;14.814;2023-06-22T01:29:31;19.30;81.10
6054;DHT22;3055;50.886;14.814;2023-06-22T01:32:00;19.30;69.90
6054;DHT22;3055;50.886;14.814;2023-06-22T01:34:29;19.20;76.40
6054;DHT22;3055;50.886;14.814;2023-06-22T01:36:59;19.20;88.90
6054;DHT22;3055;50.886;14.814;2023-06-22T01:39:26;19.20;91.80
6054;DHT22;3055;50.886;14.814;2023-06-22T01:41:54;19.40;58.60
6054;DHT22;3055;50.886;14.814;2023-06-22T01:44:21;19.30;59.20
6054;DHT22;3055;50.886;14.814;2023-06-22T01:46:51;19.40;45.10
6054;DHT22;3055;50.886;14.814;2023-06-22T01:49:19;19.20;61.70
6054;DHT22;3055;50.886;14.814;2023-06-22T01:51:46;19.20;99.90
6054;DHT22;3055;50.886;14.814;2023-06-22T01:54:13;19.10;94.60
6054;DHT22;3055;50.886;14.814;2023-06-22T01:56:40;19.10;92.20
6054;DHT22;3055;50.886;14.814;2023-06-22T01:59:11;19.00;92.90
6054;DHT22;3055;50.886;14.814;2023-06-22T02:01:42;18.90;99.90
6054;DHT22;3055;50.886;14.814;2023-06-22T02:04:19;18.80;99.90
6054;DHT22;3055;50.886;14.814;2023-06-22T02:06:47;18.70;99.90
6054;DHT22;3055;50.886;14.814;2023-06-22T02:09:19;18.70;99.90
6054;DHT22;3055;50.886;14.814;2023-06-22T02:11:47;18.70;99.90
6054;DHT22;3055;50.886;14.814;2023-06-22T02:14:18;18.60;99.90
6054;DHT22;3055;50.886;14.814;2023-06-22T02:16:46;18.50;99.90
6054;DHT22;3055;50.886;14.814;2023-06-22T02:19:14;18.50;99.90
6054;DHT22;3055;50.886;14.814;2023-06-22T02:21:44;18.50;99.90
6054;DHT22;3055;50.886;14.814;2023-06-22T02:24:11;18.40;99.90
6054;DHT22;3055;50.886;14.814;2023-06-22T02:26:38;18.40;99.90
6054;DHT22;3055;50.886;14.814;2023-06-22T02:29:08;18.30;99.90
6054;DHT22;3055;50.886;14.814;2023-06-22T02:31:35;18.30;99.90
6054;DHT22;3055;50.886;14.814;2023-06-22T02:34:02;18.40;99.90
6054;DHT22;3055;50.886;14.814;2023-06-22T02:36:30;18.40;99.90
6054;DHT22;3055;50.886;14.814;2023-06-22T02:38:59;18.40;99.90
6054;DHT22;3055;50.886;14.814;2023-06-22T02:41:26;18.40;99.90
6054;DHT22;3055;50.886;14.814;2023-06-22T02:43:54;18.40;99.90
6054;DHT22;3055;50.886;14.814;2023-06-22T02:46:21;18.40;99.90
6054;DHT22;3055;50.886;14.814;2023-06-22T02:48:48;18.30;99.90
6054;DHT22;3055;50.886;14.814;2023-06-22T02:51:15;18.40;99.90
6054;DHT22;3055;50.886;14.814;2023-06-22T02:53:43;18.40;99.90
6054;DHT22;3055;50.886;14.814;2023-06-22T02:56:11;18.30;99.90
6054;DHT22;3055;50.886;14.814;2023-06-22T02:58:38;18.30;99.90
6054;DHT22;3055;50.886;14.814;2023-06-22T03:01:05;18.30;99.90
6054;DHT22;3055;50.886;14.814;2023-06-22T03:03:33;18.30;99.90
6054;DHT22;3055;50.886;14.814;2023-06-22T03:06:00;18.30;99.90
6054;DHT22;3055;50.886;14.814;2023-06-22T03:08:27;18.30;99.90
6054;DHT22;3055;50.886;14.814;2023-06-22T03:10:56;18.30;99.90
6054;DHT22;3055;50.886;14.814;2023-06-22T03:13:24;18.30;99.90
6054;DHT22;3055;50.886;14.814;2023-06-22T03:15:51;18.30;99.90
6054;DHT22;3055;50.886;14.814;2023-06-22T03:18:18;18.30;99.90
6054;DHT22;3055;50.886;14.814;2023-06-22T03:20:48;18.40;99.90
6054;DHT22;3055;50.886;14.814;2023-06-22T03:23:15;18.40;99.90
6054;DHT22;3055;50.886;14.814;2023-06-22T03:25:42;18.40;99.90
6054;DHT22;3055;50.886;14.814;2023-06-22T03:28:11;18.60;99.90
6054;DHT22;3055;50.886;14.814;2023-06-22T03:30:38;18.60;99.90
6054;DHT22;3055;50.886;14.814;2023-06-22T03:33:05;18.60;99.90
6054;DHT22;3055;50.886;14.814;2023-06-22T03:35:32;18.60;99.90
6054;DHT22;3055;50.886;14.814;2023-06-22T03:37:59;18.70;93.00
6054;DHT22;3055;50.886;14.814;2023-06-22T03:40:26;18.80;71.30
6054;DHT22;3055;50.886;14.814;2023-06-22T03:42:53;18.80;81.30
6054;DHT22;3055;50.886;14.814;2023-06-22T03:45:22;18.80;60.60
6054;DHT22;3055;50.886;14.814;2023-06-22T03:47:49;18.80;74.60
6054;DHT22;3055;50.886;14.814;2023-06-22T03:50:16;18.90;65.60
6054;DHT22;3055;50.886;14.814;2023-06-22T03:52:45;19.00;45.80
6054;DHT22;3055;50.886;14.814;2023-06-22T03:55:13;19.10;35.40
6054;DHT22;3055;50.886;14.814;2023-06-22T03:57:40;19.20;6.10
6054;DHT22;3055;50.886;14.814;2023-06-22T04:00:08;19.30;1.00
6054;DHT22;3055;50.886;14.814;2023-06-22T04:02:37;19.40;1.00
6054;DHT22;3055;50.886;14.814;2023-06-22T04:05:05;19.50;1.00
6054;DHT22;3055;50.886;14.814;2023-06-22T04:07:32;19.60;1.00
6054;DHT22;3055;50.886;14.814;2023-06-22T04:09:59;19.60;1.00
6054;DHT22;3055;50.886;14.814;2023-06-22T04:12:26;19.80;1.00
6054;DHT22;3055;50.886;14.814;2023-06-22T04:14:53;20.20;1.00
6054;DHT22;3055;50.886;14.814;2023-06-22T04:17:20;20.70;1.00
6054;DHT22;3055;50.886;14.814;2023-06-22T04:19:52;21.10;1.00
6054;DHT22;3055;50.886;14.814;2023-06-22T04:22:19;21.60;1.00
6054;DHT22;3055;50.886;14.814;2023-06-22T04:24:46;22.00;1.00
6054;DHT22;3055;50.886;14.814;2023-06-22T04:27:13;22.30;1.00
6054;DHT22;3055;50.886;14.814;2023-06-22T04:29:40;22.40;99.90
6054;DHT22;3055;50.886;14.814;2023-06-22T04:32:14;22.50;99.90
6054;DHT22;3055;50.886;14.814;2023-06-22T04:34:41;22.90;1.00
6054;DHT22;3055;50.886;14.814;2023-06-22T04:37:10;23.10;99.90
6054;DHT22;3055;50.886;14.814;2023-06-22T04:39:41;23.40;99.90
6054;DHT22;3055;50.886;14.814;2023-06-22T04:42:08;23.60;1.00
6054;DHT22;3055;50.886;14.814;2023-06-22T04:44:35;23.50;1.00
6054;DHT22;3055;50.886;14.814;2023-06-22T04:47:02;23.60;1.00
6054;DHT22;3055;50.886;14.814;2023-06-22T04:49:34;23.50;1.00
6054;DHT22;3055;50.886;14.814;2023-06-22T04:52:04;23.40;1.00
6054;DHT22;3055;50.886;14.814;2023-06-22T04:54:32;23.30;1.00
6054;DHT22;3055;50.886;14.814;2023-06-22T04:56:59;23.70;1.00
6054;DHT22;3055;50.886;14.814;2023-06-22T04:59:27;24.00;1.00
6054;DHT22;3055;50.886;14.814;2023-06-22T05:01:55;24.20;99.90
6054;DHT22;3055;50.886;14.814;2023-06-22T05:04:22;24.50;99.90
6054;DHT22;3055;50.886;14.814;2023-06-22T05:06:50;24.10;99.90
6054;DHT22;3055;50.886;14.814;2023-06-22T05:09:17;24.30;99.90
6054;DHT22;3055;50.886;14.814;2023-06-22T05:11:46;24.60;99.90
6054;DHT22;3055;50.886;14.814;2023-06-22T05:14:13;24.80;99.90
6054;DHT22;3055;50.886;14.814;2023-06-22T05:16:42;25.00;99.90
6054;DHT22;3055;50.886;14.814;2023-06-22T05:19:09;25.20;99.90
6054;DHT22;3055;50.886;14.814;2023-06-22T05:21:36;25.30;99.90
6054;DHT22;3055;50.886;14.814;2023-06-22T05:24:04;25.30;99.90
6054;DHT22;3055;50.886;14.814;2023-06-22T05:26:33;25.20;99.90
6054;DHT22;3055;50.886;14.814;2023-06-22T05:29:02;25.10;99.90
6054;DHT22;3055;50.886;14.814;2023-06-22T05:31:30;24.90;99.90
6054;DHT22;3055;50.886;14.814;2023-06-22T05:33:57;25.00;99.90
6054;DHT22;3055;50.886;14.814;2023-06-22T05:36:25;25.00;99.90
6054;DHT22;3055;50.886;14.814;2023-06-22T05:38:52;24.90;99.90
6054;DHT22;3055;50.886;14.814;2023-06-22T05:41:20;24.90;99.90
6054;DHT22;3055;50.886;14.814;2023-06-22T05:43:47;24.80;99.90
6054;DHT22;3055;50.886;14.814;2023-06-22T05:46:15;24.70;99.90
6054;DHT22;3055;50.886;14.814;2023-06-22T05:48:43;24.60;99.90
6054;DHT22;3055;50.886;14.814;2023-06-22T05:51:10;24.60;99.90
6054;DHT22;3055;50.886;14.814;2023-06-22T05:53:37;24.70;99.90
6054;DHT22;3055;50.886;14.814;2023-06-22T05:56:04;25.00;99.90
6054;DHT22;3055;50.886;14.814;2023-06-22T05:58:31;25.20;99.90
6054;DHT22;3055;50.886;14.814;2023-06-22T06:00:58;25.40;99.90
6054;DHT22;3055;50.886;14.814;2023-06-22T06:03:27;25.50;99.90
6054;DHT22;3055;50.886;14.814;2023-06-22T06:05:54;25.40;99.90
6054;DHT22;3055;50.886;14.814;2023-06-22T06:08:22;25.50;99.90
6054;DHT22;3055;50.886;14.814;2023-06-22T06:10:49;25.40;99.90
6054;DHT22;3055;50.886;14.814;2023-06-22T06:13:18;25.60;99.90
6054;DHT22;3055;50.886;14.814;2023-06-22T06:15:45;25.70;99.90
6054;DHT22;3055;50.886;14.814;2023-06-22T06:18:13;25.90;99.90
6054;DHT22;3055;50.886;14.814;2023-06-22T06:20:42;25.90;99.90
6054;DHT22;3055;50.886;14.814;2023-06-22T06:23:09;26.00;99.90
6054;DHT22;3055;50.886;14.814;2023-06-22T06:25:36;26.10;99.90
6054;DHT22;3055;50.886;14.814;2023-06-22T06:28:04;26.00;99.90
6054;DHT22;3055;50.886;14.814;2023-06-22T06:30:31;26.10;99.90
6054;DHT22;3055;50.886;14.814;2023-06-22T06:32:58;26.20;95.90
6054;DHT22;3055;50.886;14.814;2023-06-22T06:35:26;26.20;90.70
6054;DHT22;3055;50.886;14.814;2023-06-22T06:37:54;26.20;98.00
6054;DHT22;3055;50.886;14.814;2023-06-22T06:40:22;26.20;90.90
6054;DHT22;3055;50.886;14.814;2023-06-22T06:42:49;26.30;80.60
6054;DHT22;3055;50.886;14.814;2023-06-22T06:45:18;26.50;95.80
6054;DHT22;3055;50.886;14.814;2023-06-22T06:47:45;26.60;98.90
6054;DHT22;3055;50.886;14.814;2023-06-22T06:50:13;26.50;99.90
6054;DHT22;3055;50.886;14.814;2023-06-22T06:52:40;26.50;64.20
6054;DHT22;3055;50.886;14.814;2023-06-22T06:55:09;26.70;82.10
6054;DHT22;3055;50.886;14.814;2023-06-22T06:57:37;26.80;79.30
6054;DHT22;3055;50.886;14.814;2023-06-22T07:00:06;27.00;80.50
6054;DHT22;3055;50.886;14.814;2023-06-22T07:02:37;27.10;77.90
6054;DHT22;3055;50.886;14.814;2023-06-22T07:05:04;26.90;63.10
6054;DHT22;3055;50.886;14.814;2023-06-22T07:07:31;26.80;78.60
6054;DHT22;3055;50.886;14.814;2023-06-22T07:10:00;26.80;78.60
6054;DHT22;3055;50.886;14.814;2023-06-22T07:12:29;26.80;62.50
6054;DHT22;3055;50.886;14.814;2023-06-22T07:15:02;26.60;90.80
6054;DHT22;3055;50.886;14.814;2023-06-22T07:17:29;26.70;97.70
6054;DHT22;3055;50.886;14.814;2023-06-22T07:19:56;26.80;98.40
6054;DHT22;3055;50.886;14.814;2023-06-22T07:22:24;27.00;82.00
6054;DHT22;3055;50.886;14.814;2023-06-22T07:24:51;27.10;92.90
6054;DHT22;3055;50.886;14.814;2023-06-22T07:27:18;27.10;71.30
6054;DHT22;3055;50.886;14.814;2023-06-22T07:29:47;27.20;90.90
6054;DHT22;3055;50.886;14.814;2023-06-22T07:32:14;27.30;78.60
6054;DHT22;3055;50.886;14.814;2023-06-22T07:34:41;27.30;59.70
6054;DHT22;3055;50.886;14.814;2023-06-22T07:37:09;27.20;44.10
6054;DHT22;3055;50.886;14.814;2023-06-22T07:39:36;26.90;36.30
6054;DHT22;3055;50.886;14.814;2023-06-22T07:42:04;26.60;97.00
6054;DHT22;3055;50.886;14.814;2023-06-22T07:44:31;26.70;67.50
6054;DHT22;3055;50.886;14.814;2023-06-22T07:46:59;26.40;84.20
6054;DHT22;3055;50.886;14.814;2023-06-22T07:49:28;26.20;97.70
6054;DHT22;3055;50.886;14.814;2023-06-22T07:51:55;26.10;99.60
6054;DHT22;3055;50.886;14.814;2023-06-22T07:54:22;26.00;98.60
6054;DHT22;3055;50.886;14.814;2023-06-22T07:56:49;26.20;99.90
6054;DHT22;3055;50.886;14.814;2023-06-22T07:59:16;26.50;99.90
6054;DHT22;3055;50.886;14.814;2023-06-22T08:01:45;26.80;93.20
6054;DHT22;3055;50.886;14.814;2023-06-22T08:04:16;27.00;90.90
6054;DHT22;3055;50.886;14.814;2023-06-22T08:06:43;27.10;44.70
6054;DHT22;3055;50.886;14.814;2023-06-22T08:09:10;27.30;43.20
6054;DHT22;3055;50.886;14.814;2023-06-22T08:11:37;27.40;45.70
6054;DHT22;3055;50.886;14.814;2023-06-22T08:14:04;27.50;74.10
6054;DHT22;3055;50.886;14.814;2023-06-22T08:16:31;27.70;40.60
6054;DHT22;3055;50.886;14.814;2023-06-22T08:18:58;27.80;24.40
6054;DHT22;3055;50.886;14.814;2023-06-22T08:21:27;27.70;16.10
6054;DHT22;3055;50.886;14.814;2023-06-22T08:23:54;28.00;21.00
6054;DHT22;3055;50.886;14.814;2023-06-22T08:26:21;28.30;2.40
6054;DHT22;3055;50.886;14.814;2023-06-22T08:28:49;28.40;1.00
6054;DHT22;3055;50.886;14.814;2023-06-22T08:31:16;28.50;1.00
6054;DHT22;3055;50.886;14.814;2023-06-22T08:33:43;28.60;1.00
6054;DHT22;3055;50.886;14.814;2023-06-22T08:36:12;28.80;1.00
6054;DHT22;3055;50.886;14.814;2023-06-22T08:38:41;28.80;1.00
6054;DHT22;3055;50.886;14.814;2023-06-22T08:41:08;29.00;1.00
6054;DHT22;3055;50.886;14.814;2023-06-22T08:43:35;29.20;1.00
6054;DHT22;3055;50.886;14.814;2023-06-22T08:46:02;29.50;1.00
6054;DHT22;3055;50.886;14.814;2023-06-22T08:48:29;29.60;1.00
6054;DHT22;3055;50.886;14.814;2023-06-22T08:51:07;29.80;1.00
6054;DHT22;3055;50.886;14.814;2023-06-22T08:53:38;29.80;1.00
6054;DHT22;3055;50.886;14.814;2023-06-22T08:56:06;29.60;1.00
6054;DHT22;3055;50.886;14.814;2023-06-22T08:58:33;29.40;1.00
6054;DHT22;3055;50.886;14.814;2023-06-22T09:01:00;29.60;1.00
6054;DHT22;3055;50.886;14.814;2023-06-22T09:03:27;29.80;1.00
6054;DHT22;3055;50.886;14.814;2023-06-22T09:05:54;30.10;1.00
6054;DHT22;3055;50.886;14.814;2023-06-22T09:08:22;30.20;1.00
6054;DHT22;3055;50.886;14.814;2023-06-22T09:10:49;30.30;1.00
6054;DHT22;3055;50.886;14.814;2023-06-22T09:13:17;30.50;1.00
6054;DHT22;3055;50.886;14.814;2023-06-22T09:15:45;30.70;1.00
6054;DHT22;3055;50.886;14.814;2023-06-22T09:18:12;31.00;1.00
6054;DHT22;3055;50.886;14.814;2023-06-22T09:20:39;31.10;1.00
6054;DHT22;3055;50.886;14.814;2023-06-22T09:23:07;31.00;1.00
6054;DHT22;3055;50.886;14.814;2023-06-22T09:25:34;31.00;1.00
6054;DHT22;3055;50.886;14.814;2023-06-22T09:28:01;31.00;1.00
6054;DHT22;3055;50.886;14.814;2023-06-22T09:30:29;30.80;1.00
6054;DHT22;3055;50.886;14.814;2023-06-22T09:32:56;30.70;1.00
6054;DHT22;3055;50.886;14.814;2023-06-22T09:35:23;30.70;1.00
6054;DHT22;3055;50.886;14.814;2023-06-22T09:37:51;31.00;1.00
6054;DHT22;3055;50.886;14.814;2023-06-22T09:40:20;31.20;1.00
6054;DHT22;3055;50.886;14.814;2023-06-22T09:42:47;31.30;1.00
6054;DHT22;3055;50.886;14.814;2023-06-22T09:45:14;31.50;1.00
6054;DHT22;3055;50.886;14.814;2023-06-22T09:47:43;31.60;1.00
6054;DHT22;3055;50.886;14.814;2023-06-22T09:50:10;31.40;1.00
6054;DHT22;3055;50.886;14.814;2023-06-22T09:52:37;31.00;1.00
6054;DHT22;3055;50.886;14.814;2023-06-22T09:55:05;30.70;1.00
6054;DHT22;3055;50.886;14.814;2023-06-22T09:57:32;30.90;1.00
6054;DHT22;3055;50.886;14.814;2023-06-22T09:59:59;31.10;1.00
6054;DHT22;3055;50.886;14.814;2023-06-22T10:02:26;31.40;1.00
6054;DHT22;3055;50.886;14.814;2023-06-22T10:04:55;31.60;1.00
6054;DHT22;3055;50.886;14.814;2023-06-22T10:07:22;31.80;1.00
6054;DHT22;3055;50.886;14.814;2023-06-22T10:09:49;31.90;1.00
6054;DHT22;3055;50.886;14.814;2023-06-22T10:12:16;32.10;1.00
6054;DHT22;3055;50.886;14.814;2023-06-22T10:14:43;31.90;1.00
6054;DHT22;3055;50.886;14.814;2023-06-22T10:17:10;31.50;1.00
6054;DHT22;3055;50.886;14.814;2023-06-22T10:19:37;31.50;1.00
6054;DHT22;3055;50.886;14.814;2023-06-22T10:22:05;31.70;1.00
6054;DHT22;3055;50.886;14.814;2023-06-22T10:24:32;31.80;1.00
6054;DHT22;3055;50.886;14.814;2023-06-22T10:27:00;31.90;1.00
6054;DHT22;3055;50.886;14.814;2023-06-22T10:29:27;32.10;1.00
6054;DHT22;3055;50.886;14.814;2023-06-22T10:31:54;32.20;1.00
6054;DHT22;3055;50.886;14.814;2023-06-22T10:34:21;32.50;1.00
6054;DHT22;3055;50.886;14.814;2023-06-22T10:36:48;32.90;1.00
6054;DHT22;3055;50.886;14.814;2023-06-22T10:39:16;32.80;1.00
6054;DHT22;3055;50.886;14.814;2023-06-22T10:41:43;32.40;1.00
6054;DHT22;3055;50.886;14.814;2023-06-22T10:44:11;32.60;1.00
6054;DHT22;3055;50.886;14.814;2023-06-22T10:46:39;32.60;1.00
6054;DHT22;3055;50.886;14.814;2023-06-22T10:49:06;32.70;1.00
6054;DHT22;3055;50.886;14.814;2023-06-22T10:51:33;32.80;1.00
6054;DHT22;3055;50.886;14.814;2023-06-22T10:54:04;32.70;1.00
6054;DHT22;3055;50.886;14.814;2023-06-22T10:56:32;32.20;1.00
6054;DHT22;3055;50.886;14.814;2023-06-22T10:59:00;32.10;1.00
6054;DHT22;3055;50.886;14.814;2023-06-22T11:01:27;32.30;1.00
6054;DHT22;3055;50.886;14.814;2023-06-22T11:03:56;32.30;1.00
6054;DHT22;3055;50.886;14.814;2023-06-22T11:06:23;32.10;1.00
6054;DHT22;3055;50.886;14.814;2023-06-22T11:08:50;31.90;1.00
6054;DHT22;3055;50.886;14.814;2023-06-22T11:11:17;31.80;1.00
6054;DHT22;3055;50.886;14.814;2023-06-22T11:13:46;31.80;1.00
6054;DHT22;3055;50.886;14.814;2023-06-22T11:16:13;31.60;1.00
6054;DHT22;3055;50.886;14.814;2023-06-22T11:18:40;31.50;1.00
6054;DHT22;3055;50.886;14.814;2023-06-22T11:21:07;31.40;1.00
6054;DHT22;3055;50.886;14.814;2023-06-22T11:23:34;31.80;1.00
6054;DHT22;3055;50.886;14.814;2023-06-22T11:26:03;32.00;1.00
6054;DHT22;3055;50.886;14.814;2023-06-22T11:28:30;32.20;1.00
6054;DHT22;3055;50.886;14.814;2023-06-22T11:30:59;32.30;1.00
6054;DHT22;3055;50.886;14.814;2023-06-22T11:33:26;32.30;1.00
6054;DHT22;3055;50.886;14.814;2023-06-22T11:35:53;32.10;1.00
6054;DHT22;3055;50.886;14.814;2023-06-22T11:38:22;32.20;1.00
6054;DHT22;3055;50.886;14.814;2023-06-22T11:40:49;32.10;1.00
6054;DHT22;3055;50.886;14.814;2023-06-22T11:43:16;31.80;1.00
6054;DHT22;3055;50.886;14.814;2023-06-22T11:45:43;31.50;1.00
6054;DHT22;3055;50.886;14.814;2023-06-22T11:48:11;31.70;1.00
6054;DHT22;3055;50.886;14.814;2023-06-22T11:50:38;31.90;1.00
6054;DHT22;3055;50.886;14.814;2023-06-22T11:53:05;32.00;1.00
6054;DHT22;3055;50.886;14.814;2023-06-22T11:55:32;32.20;1.00
6054;DHT22;3055;50.886;14.814;2023-06-22T11:57:59;32.60;1.00
6054;DHT22;3055;50.886;14.814;2023-06-22T12:00:29;32.60;1.00
6054;DHT22;3055;50.886;14.814;2023-06-22T12:02:56;32.70;1.00
6054;DHT22;3055;50.886;14.814;2023-06-22T12:05:24;32.80;1.00
6054;DHT22;3055;50.886;14.814;2023-06-22T12:07:53;32.70;1.00
6054;DHT22;3055;50.886;14.814;2023-06-22T12:10:21;32.70;1.00
6054;DHT22;3055;50.886;14.814;2023-06-22T12:12:48;32.70;1.00
6054;DHT22;3055;50.886;14.814;2023-06-22T12:15:15;32.50;1.00
6054;DHT22;3055;50.886;14.814;2023-06-22T12:17:42;32.70;1.00
6054;DHT22;3055;50.886;14.814;2023-06-22T12:20:10;32.80;1.00
6054;DHT22;3055;50.886;14.814;2023-06-22T12:22:38;32.50;1.00
6054;DHT22;3055;50.886;14.814;2023-06-22T12:25:07;32.50;1.00
6054;DHT22;3055;50.886;14.814;2023-06-22T12:27:34;32.70;1.00
6054;DHT22;3055;50.886;14.814;2023-06-22T12:30:01;32.80;1.00
6054;DHT22;3055;50.886;14.814;2023-06-22T12:32:29;32.70;1.00
6054;DHT22;3055;50.886;14.814;2023-06-22T12:34:56;32.70;1.00
6054;DHT22;3055;50.886;14.814;2023-06-22T12:37:24;32.80;1.00
6054;DHT22;3055;50.886;14.814;2023-06-22T12:39:54;32.80;1.00
6054;DHT22;3055;50.886;14.814;2023-06-22T12:42:21;32.60;1.00
6054;DHT22;3055;50.886;14.814;2023-06-22T12:44:48;32.20;1.00
6054;DHT22;3055;50.886;14.814;2023-06-22T12:47:15;32.10;1.00
6054;DHT22;3055;50.886;14.814;2023-06-22T12:49:42;32.20;1.00
6054;DHT22;3055;50.886;14.814;2023-06-22T12:52:10;32.30;1.00
6054;DHT22;3055;50.886;14.814;2023-06-22T12:54:37;32.20;1.00
6054;DHT22;3055;50.886;14.814;2023-06-22T12:57:06;31.90;1.00
6054;DHT22;3055;50.886;14.814;2023-06-22T12:59:33;32.10;1.00
6054;DHT22;3055;50.886;14.814;2023-06-22T13:02:00;32.00;1.00
6054;DHT22;3055;50.886;14.814;2023-06-22T13:04:27;32.00;1.00
6054;DHT22;3055;50.886;14.814;2023-06-22T13:06:54;32.40;1.00
6054;DHT22;3055;50.886;14.814;2023-06-22T13:09:21;32.80;1.00
6054;DHT22;3055;50.886;14.814;2023-06-22T13:11:49;33.10;1.00
6054;DHT22;3055;50.886;14.814;2023-06-22T13:14:18;33.20;1.00
6054;DHT22;3055;50.886;14.814;2023-06-22T13:16:45;33.10;1.00
6054;DHT22;3055;50.886;14.814;2023-06-22T13:19:12;33.20;1.00
6054;DHT22;3055;50.886;14.814;2023-06-22T13:21:40;33.10;1.00
6054;DHT22;3055;50.886;14.814;2023-06-22T13:24:07;33.00;1.00
6054;DHT22;3055;50.886;14.814;2023-06-22T13:26:34;33.20;1.00
6054;DHT22;3055;50.886;14.814;2023-06-22T13:29:01;33.20;1.00
6054;DHT22;3055;50.886;14.814;2023-06-22T13:31:30;33.30;1.00
6054;DHT22;3055;50.886;14.814;2023-06-22T13:33:57;33.50;1.00
6054;DHT22;3055;50.886;14.814;2023-06-22T13:36:24;33.60;1.00
6054;DHT22;3055;50.886;14.814;2023-06-22T13:38:51;33.30;1.00
6054;DHT22;3055;50.886;14.814;2023-06-22T13:41:18;33.00;1.00
6054;DHT22;3055;50.886;14.814;2023-06-22T13:43:45;32.40;1.00
6054;DHT22;3055;50.886;14.814;2023-06-22T13:46:12;32.30;1.00
6054;DHT22;3055;50.886;14.814;2023-06-22T13:48:41;32.60;1.00
6054;DHT22;3055;50.886;14.814;2023-06-22T13:51:08;32.90;1.00
6054;DHT22;3055;50.886;14.814;2023-06-22T13:53:35;33.00;1.00
6054;DHT22;3055;50.886;14.814;2023-06-22T13:56:02;33.60;1.00
6054;DHT22;3055;50.886;14.814;2023-06-22T13:58:29;34.10;1.00
6054;DHT22;3055;50.886;14.814;2023-06-22T14:00:56;34.10;1.00
6054;DHT22;3055;50.886;14.814;2023-06-22T14:03:23;34.50;1.00
6054;DHT22;3055;50.886;14.814;2023-06-22T14:05:52;35.00;1.00
6054;DHT22;3055;50.886;14.814;2023-06-22T14:08:22;34.80;1.00
6054;DHT22;3055;50.886;14.814;2023-06-22T14:10:50;34.30;1.00
6054;DHT22;3055;50.886;14.814;2023-06-22T14:13:19;33.30;1.00
6054;DHT22;3055;50.886;14.814;2023-06-22T14:15:46;32.60;1.00
6054;DHT22;3055;50.886;14.814;2023-06-22T14:18:17;32.40;1.00
6054;DHT22;3055;50.886;14.814;2023-06-22T14:20:44;32.30;1.00
6054;DHT22;3055;50.886;14.814;2023-06-22T14:23:14;32.60;1.00
6054;DHT22;3055;50.886;14.814;2023-06-22T14:25:41;33.20;1.00
6054;DHT22;3055;50.886;14.814;2023-06-22T14:28:08;33.50;1.00
6054;DHT22;3055;50.886;14.814;2023-06-22T14:30:36;34.20;1.00
6054;DHT22;3055;50.886;14.814;2023-06-22T14:33:03;34.10;1.00
6054;DHT22;3055;50.886;14.814;2023-06-22T14:35:30;33.90;1.00
6054;DHT22;3055;50.886;14.814;2023-06-22T14:37:57;33.70;1.00
6054;DHT22;3055;50.886;14.814;2023-06-22T14:40:25;33.80;1.00
6054;DHT22;3055;50.886;14.814;2023-06-22T14:42:52;33.80;1.00
6054;DHT22;3055;50.886;14.814;2023-06-22T14:45:22;33.90;1.00
6054;DHT22;3055;50.886;14.814;2023-06-22T14:47:49;33.70;1.00
6054;DHT22;3055;50.886;14.814;2023-06-22T14:50:16;33.40;1.00
6054;DHT22;3055;50.886;14.814;2023-06-22T14:52:44;33.40;1.00
6054;DHT22;3055;50.886;14.814;2023-06-22T14:55:11;33.60;1.00
6054;DHT22;3055;50.886;14.814;2023-06-22T14:57:39;33.80;1.00
6054;DHT22;3055;50.886;14.814;2023-06-22T15:00:07;33.90;1.00
6054;DHT22;3055;50.886;14.814;2023-06-22T15:02:34;33.70;1.00
6054;DHT22;3055;50.886;14.814;2023-06-22T15:05:02;33.70;1.00
6054;DHT22;3055;50.886;14.814;2023-06-22T15:07:29;33.90;1.00
6054;DHT22;3055;50.886;14.814;2023-06-22T15:09:56;34.20;1.00
6054;DHT22;3055;50.886;14.814;2023-06-22T15:12:23;34.30;1.00
6054;DHT22;3055;50.886;14.814;2023-06-22T15:14:51;33.80;1.00
6054;DHT22;3055;50.886;14.814;2023-06-22T15:17:18;33.90;1.00
6054;DHT22;3055;50.886;14.814;2023-06-22T15:19:46;34.40;1.00
6054;DHT22;3055;50.886;14.814;2023-06-22T15:22:13;34.70;1.00
6054;DHT22;3055;50.886;14.814;2023-06-22T15:24:42;35.10;1.00
6054;DHT22;3055;50.886;14.814;2023-06-22T15:27:10;35.00;1.00
6054;DHT22;3055;50.886;14.814;2023-06-22T15:29:39;35.40;1.00
6054;DHT22;3055;50.886;14.814;2023-06-22T15:32:08;35.70;1.00
6054;DHT22;3055;50.886;14.814;2023-06-22T15:34:35;35.40;1.00
6054;DHT22;3055;50.886;14.814;2023-06-22T15:37:03;34.80;1.00
6054;DHT22;3055;50.886;14.814;2023-06-22T15:39:30;35.20;1.00
6054;DHT22;3055;50.886;14.814;2023-06-22T15:41:57;35.00;1.00
6054;DHT22;3055;50.886;14.814;2023-06-22T15:44:24;34.80;1.00
6054;DHT22;3055;50.886;14.814;2023-06-22T15:46:52;34.80;1.00
6054;DHT22;3055;50.886;14.814;2023-06-22T15:49:21;35.30;1.00
6054;DHT22;3055;50.886;14.814;2023-06-22T15:51:48;35.50;1.00
6054;DHT22;3055;50.886;14.814;2023-06-22T15:54:15;35.50;1.00
6054;DHT22;3055;50.886;14.814;2023-06-22T15:56:42;35.60;1.00
6054;DHT22;3055;50.886;14.814;2023-06-22T15:59:13;35.30;1.00